sensor_id;sensor_type;location;lat;lon;timestamp;temperature;humidity
43647;DHT22;56152;49.996;18.980;2023-02-14T00:00:57;3.10;98.40
43647;DHT22;56152;49.996;18.980;2023-02-14T00:06:04;3.10;98.10
43647;DHT22;56152;49.996;18.980;2023-02-14T00:11:06;3.10;98.20
43647;DHT22;56152;49.996;18.980;2023-02-14T00:16:10;3.10;98.20
43647;DHT22;56152;49.996;18.980;2023-02-14T00:21:12;3.10;98.30
43647;DHT22;56152;49.996;18.980;2023-02-14T00:26:14;3.00;98.30
43647;DHT22;56152;49.996;18.980;2023-02-14T00:31:18;3.00;98.30
43647;DHT22;56152;49.996;18.980;2023-02-14T00:36:20;3.00;98.30
43647;DHT22;56152;49.996;18.980;2023-02-14T00:41:23;3.00;98.30
43647;DHT22;56152;49.996;18.980;2023-02-14T00:46:28;3.00;98.30
43647;DHT22;56152;49.996;18.980;2023-02-14T00:51:31;2.90;98.30
43647;DHT22;56152;49.996;18.980;2023-02-14T00:56:33;3.00;98.40
43647;DHT22;56152;49.996;18.980;2023-02-14T01:01:38;2.90;98.40
43647;DHT22;56152;49.996;18.980;2023-02-14T01:06:40;2.90;98.40
43647;DHT22;56152;49.996;18.980;2023-02-14T01:11:42;2.90;98.40
43647;DHT22;56152;49.996;18.980;2023-02-14T01:16:45;2.90;98.50
43647;DHT22;56152;49.996;18.980;2023-02-14T01:21:48;2.90;98.50
43647;DHT22;56152;49.996;18.980;2023-02-14T01:26:50;2.80;98.50
43647;DHT22;56152;49.996;18.980;2023-02-14T01:31:54;2.80;98.50
43647;DHT22;56152;49.996;18.980;2023-02-14T01:36:56;2.80;98.50
43647;DHT22;56152;49.996;18.980;2023-02-14T01:42:00;2.80;98.50
43647;DHT22;56152;49.996;18.980;2023-02-14T01:47:07;2.80;98.60
43647;DHT22;56152;49.996;18.980;2023-02-14T01:52:13;2.70;98.70
43647;DHT22;56152;49.996;18.980;2023-02-14T01:57:18;2.70;98.70
43647;DHT22;56152;49.996;18.980;2023-02-14T02:02:24;2.70;98.70
43647;DHT22;56152;49.996;18.980;2023-02-14T02:07:28;2.60;98.70
43647;DHT22;56152;49.996;18.980;2023-02-14T02:12:34;2.70;98.80
43647;DHT22;56152;49.996;18.980;2023-02-14T02:17:46;2.70;98.80
43647;DHT22;56152;49.996;18.980;2023-02-14T02:23:11;2.60;98.80
43647;DHT22;56152;49.996;18.980;2023-02-14T02:28:54;2.60;98.80
43647;DHT22;56152;49.996;18.980;2023-02-14T02:34:21;2.60;98.90
43647;DHT22;56152;49.996;18.980;2023-02-14T02:39:43;2.60;98.80
43647;DHT22;56152;49.996;18.980;2023-02-14T02:44:54;2.60;98.80
43647;DHT22;56152;49.996;18.980;2023-02-14T02:50:04;2.60;98.80
43647;DHT22;56152;49.996;18.980;2023-02-14T02:55:42;2.50;98.80
43647;DHT22;56152;49.996;18.980;2023-02-14T03:01:07;2.50;98.80
43647;DHT22;56152;49.996;18.980;2023-02-14T03:06:12;2.50;98.70
43647;DHT22;56152;49.996;18.980;2023-02-14T03:11:17;2.50;98.70
43647;DHT22;56152;49.996;18.980;2023-02-14T03:16:29;2.50;98.70
43647;DHT22;56152;49.996;18.980;2023-02-14T03:21:43;2.40;98.70
43647;DHT22;56152;49.996;18.980;2023-02-14T03:26:56;2.40;98.70
43647;DHT22;56152;49.996;18.980;2023-02-14T03:32:07;2.40;98.80
43647;DHT22;56152;49.996;18.980;2023-02-14T03:37:14;2.40;98.80
43647;DHT22;56152;49.996;18.980;2023-02-14T03:42:22;2.40;98.80
43647;DHT22;56152;49.996;18.980;2023-02-14T03:47:32;2.40;98.80
43647;DHT22;56152;49.996;18.980;2023-02-14T03:52:37;2.40;98.80
43647;DHT22;56152;49.996;18.980;2023-02-14T03:57:48;2.30;98.80
43647;DHT22;56152;49.996;18.980;2023-02-14T04:02:55;2.30;98.80
43647;DHT22;56152;49.996;18.980;2023-02-14T04:07:59;2.30;98.80
43647;DHT22;56152;49.996;18.980;2023-02-14T04:13:05;2.40;98.80
43647;DHT22;56152;49.996;18.980;2023-02-14T04:18:10;2.40;98.80
43647;DHT22;56152;49.996;18.980;2023-02-14T04:23:30;2.30;98.80
43647;DHT22;56152;49.996;18.980;2023-02-14T04:28:36;2.30;98.70
43647;DHT22;56152;49.996;18.980;2023-02-14T04:33:40;2.30;98.80
43647;DHT22;56152;49.996;18.980;2023-02-14T04:38:43;2.30;98.70
43647;DHT22;56152;49.996;18.980;2023-02-14T04:43:47;2.30;98.80
43647;DHT22;56152;49.996;18.980;2023-02-14T04:48:50;2.30;98.80
43647;DHT22;56152;49.996;18.980;2023-02-14T04:53:52;2.30;98.80
43647;DHT22;56152;49.996;18.980;2023-02-14T04:58:56;2.30;98.80
43647;DHT22;56152;49.996;18.980;2023-02-14T05:04:00;2.30;98.80
43647;DHT22;56152;49.996;18.980;2023-02-14T05:09:03;2.30;98.80
43647;DHT22;56152;49.996;18.980;2023-02-14T05:14:10;2.30;98.80
43647;DHT22;56152;49.996;18.980;2023-02-14T05:19:15;2.30;98.90
43647;DHT22;56152;49.996;18.980;2023-02-14T05:24:17;2.20;98.80
43647;DHT22;56152;49.996;18.980;2023-02-14T05:29:22;2.20;98.80
43647;DHT22;56152;49.996;18.980;2023-02-14T05:34:23;2.20;98.80
43647;DHT22;56152;49.996;18.980;2023-02-14T05:39:28;2.20;98.80
43647;DHT22;56152;49.996;18.980;2023-02-14T05:44:36;2.30;98.80
43647;DHT22;56152;49.996;18.980;2023-02-14T05:49:38;2.30;98.80
43647;DHT22;56152;49.996;18.980;2023-02-14T05:54:40;2.30;98.70
43647;DHT22;56152;49.996;18.980;2023-02-14T05:59:44;2.30;98.70
43647;DHT22;56152;49.996;18.980;2023-02-14T06:04:46;2.30;98.80
43647;DHT22;56152;49.996;18.980;2023-02-14T06:09:49;2.20;98.70
43647;DHT22;56152;49.996;18.980;2023-02-14T06:14:53;2.30;98.70
43647;DHT22;56152;49.996;18.980;2023-02-14T06:19:54;2.20;98.70
43647;DHT22;56152;49.996;18.980;2023-02-14T06:24:57;2.20;98.70
43647;DHT22;56152;49.996;18.980;2023-02-14T06:30:01;2.20;98.70
43647;DHT22;56152;49.996;18.980;2023-02-14T06:35:03;2.20;98.60
43647;DHT22;56152;49.996;18.980;2023-02-14T06:40:07;2.20;98.70
43647;DHT22;56152;49.996;18.980;2023-02-14T06:45:12;2.20;98.70
43647;DHT22;56152;49.996;18.980;2023-02-14T06:50:14;2.20;98.70
43647;DHT22;56152;49.996;18.980;2023-02-14T06:55:16;2.20;98.70
43647;DHT22;56152;49.996;18.980;2023-02-14T07:00:21;2.20;98.70
43647;DHT22;56152;49.996;18.980;2023-02-14T07:05:26;2.20;98.70
43647;DHT22;56152;49.996;18.980;2023-02-14T07:10:31;2.30;98.70
43647;DHT22;56152;49.996;18.980;2023-02-14T07:15:35;2.30;98.70
43647;DHT22;56152;49.996;18.980;2023-02-14T07:20:41;2.30;98.60
43647;DHT22;56152;49.996;18.980;2023-02-14T07:25:44;2.30;98.60
43647;DHT22;56152;49.996;18.980;2023-02-14T07:30:48;2.30;98.60
43647;DHT22;56152;49.996;18.980;2023-02-14T07:35:50;2.40;98.60
43647;DHT22;56152;49.996;18.980;2023-02-14T07:40:52;2.40;98.60
43647;DHT22;56152;49.996;18.980;2023-02-14T07:45:56;2.40;98.60
43647;DHT22;56152;49.996;18.980;2023-02-14T07:51:00;2.40;98.60
43647;DHT22;56152;49.996;18.980;2023-02-14T07:56:03;2.50;98.60
43647;DHT22;56152;49.996;18.980;2023-02-14T08:01:07;2.50;98.60
43647;DHT22;56152;49.996;18.980;2023-02-14T08:06:09;2.60;98.60
43647;DHT22;56152;49.996;18.980;2023-02-14T08:11:11;2.60;98.60
43647;DHT22;56152;49.996;18.980;2023-02-14T08:16:35;2.70;98.50
43647;DHT22;56152;49.996;18.980;2023-02-14T08:21:38;2.70;98.40
43647;DHT22;56152;49.996;18.980;2023-02-14T08:26:43;2.80;98.50
43647;DHT22;56152;49.996;18.980;2023-02-14T08:31:46;2.90;98.40
43647;DHT22;56152;49.996;18.980;2023-02-14T08:36:48;2.90;98.30
43647;DHT22;56152;49.996;18.980;2023-02-14T08:41:52;3.00;98.20
43647;DHT22;56152;49.996;18.980;2023-02-14T08:46:56;3.10;98.20
43647;DHT22;56152;49.996;18.980;2023-02-14T08:51:58;3.10;98.10
43647;DHT22;56152;49.996;18.980;2023-02-14T08:57:00;3.20;98.10
43647;DHT22;56152;49.996;18.980;2023-02-14T09:02:10;3.40;98.00
43647;DHT22;56152;49.996;18.980;2023-02-14T09:07:14;3.40;97.90
43647;DHT22;56152;49.996;18.980;2023-02-14T09:12:16;3.50;97.80
43647;DHT22;56152;49.996;18.980;2023-02-14T09:17:21;3.60;97.80
43647;DHT22;56152;49.996;18.980;2023-02-14T09:22:23;3.60;98.00
43647;DHT22;56152;49.996;18.980;2023-02-14T09:27:26;3.70;97.70
43647;DHT22;56152;49.996;18.980;2023-02-14T09:32:32;3.70;97.60
43647;DHT22;56152;49.996;18.980;2023-02-14T09:37:37;3.80;97.60
43647;DHT22;56152;49.996;18.980;2023-02-14T09:43:02;3.80;97.50
43647;DHT22;56152;49.996;18.980;2023-02-14T09:48:13;3.90;97.40
43647;DHT22;56152;49.996;18.980;2023-02-14T09:53:24;4.00;97.30
43647;DHT22;56152;49.996;18.980;2023-02-14T09:58:30;4.10;97.40
43647;DHT22;56152;49.996;18.980;2023-02-14T10:04:09;4.20;97.30
43647;DHT22;56152;49.996;18.980;2023-02-14T10:09:47;4.30;97.20
43647;DHT22;56152;49.996;18.980;2023-02-14T10:15:03;4.50;97.10
43647;DHT22;56152;49.996;18.980;2023-02-14T10:20:21;4.40;96.80
43647;DHT22;56152;49.996;18.980;2023-02-14T10:25:28;4.50;96.90
43647;DHT22;56152;49.996;18.980;2023-02-14T10:30:38;4.60;96.80
43647;DHT22;56152;49.996;18.980;2023-02-14T10:35:46;4.70;96.80
43647;DHT22;56152;49.996;18.980;2023-02-14T10:46:26;4.90;96.60
43647;DHT22;56152;49.996;18.980;2023-02-14T10:51:37;5.00;96.50
43647;DHT22;56152;49.996;18.980;2023-02-14T10:56:47;5.00;96.40
43647;DHT22;56152;49.996;18.980;2023-02-14T11:01:52;5.10;96.40
43647;DHT22;56152;49.996;18.980;2023-02-14T11:06:56;5.10;96.30
43647;DHT22;56152;49.996;18.980;2023-02-14T11:11:59;5.10;96.30
43647;DHT22;56152;49.996;18.980;2023-02-14T11:17:26;5.20;96.20
43647;DHT22;56152;49.996;18.980;2023-02-14T11:22:32;5.10;96.10
43647;DHT22;56152;49.996;18.980;2023-02-14T11:27:35;5.10;96.20
43647;DHT22;56152;49.996;18.980;2023-02-14T11:32:41;5.10;96.10
43647;DHT22;56152;49.996;18.980;2023-02-14T11:37:49;5.00;96.10
43647;DHT22;56152;49.996;18.980;2023-02-14T11:42:55;4.90;96.20
43647;DHT22;56152;49.996;18.980;2023-02-14T11:48:11;4.90;96.20
43647;DHT22;56152;49.996;18.980;2023-02-14T11:53:22;5.10;96.00
43647;DHT22;56152;49.996;18.980;2023-02-14T11:58:31;5.10;95.70
43647;DHT22;56152;49.996;18.980;2023-02-14T12:03:37;5.10;95.60
43647;DHT22;56152;49.996;18.980;2023-02-14T12:08:41;5.20;95.50
43647;DHT22;56152;49.996;18.980;2023-02-14T12:13:50;5.20;95.50
43647;DHT22;56152;49.996;18.980;2023-02-14T12:18:55;5.30;95.40
43647;DHT22;56152;49.996;18.980;2023-02-14T12:24:05;5.30;95.30
43647;DHT22;56152;49.996;18.980;2023-02-14T12:29:14;5.30;95.30
43647;DHT22;56152;49.996;18.980;2023-02-14T12:34:18;5.20;95.20
43647;DHT22;56152;49.996;18.980;2023-02-14T12:39:31;5.20;95.20
43647;DHT22;56152;49.996;18.980;2023-02-14T12:44:44;5.20;95.20
43647;DHT22;56152;49.996;18.980;2023-02-14T12:50:15;5.20;95.20
43647;DHT22;56152;49.996;18.980;2023-02-14T12:55:35;5.10;95.10
43647;DHT22;56152;49.996;18.980;2023-02-14T13:00:49;5.10;95.40
43647;DHT22;56152;49.996;18.980;2023-02-14T13:06:02;5.10;95.20
43647;DHT22;56152;49.996;18.980;2023-02-14T13:11:26;5.10;95.20
43647;DHT22;56152;49.996;18.980;2023-02-14T13:16:43;5.10;95.10
43647;DHT22;56152;49.996;18.980;2023-02-14T13:21:48;5.10;95.20
43647;DHT22;56152;49.996;18.980;2023-02-14T13:26:55;5.00;95.00
43647;DHT22;56152;49.996;18.980;2023-02-14T13:32:01;5.00;95.10
43647;DHT22;56152;49.996;18.980;2023-02-14T13:37:08;4.90;95.10
43647;DHT22;56152;49.996;18.980;2023-02-14T13:42:51;4.90;95.10
43647;DHT22;56152;49.996;18.980;2023-02-14T13:48:02;4.90;95.10
43647;DHT22;56152;49.996;18.980;2023-02-14T13:53:15;4.80;95.10
43647;DHT22;56152;49.996;18.980;2023-02-14T13:58:35;4.90;95.10
43647;DHT22;56152;49.996;18.980;2023-02-14T14:03:55;4.90;95.00
43647;DHT22;56152;49.996;18.980;2023-02-14T14:08:57;4.80;95.00
43647;DHT22;56152;49.996;18.980;2023-02-14T14:14:35;4.80;94.80
43647;DHT22;56152;49.996;18.980;2023-02-14T14:19:38;4.70;95.00
43647;DHT22;56152;49.996;18.980;2023-02-14T14:24:54;4.60;95.00
43647;DHT22;56152;49.996;18.980;2023-02-14T14:30:00;4.60;95.10
43647;DHT22;56152;49.996;18.980;2023-02-14T14:35:05;4.60;95.10
43647;DHT22;56152;49.996;18.980;2023-02-14T14:40:22;4.60;95.10
43647;DHT22;56152;49.996;18.980;2023-02-14T14:45:28;4.60;95.10
43647;DHT22;56152;49.996;18.980;2023-02-14T14:50:34;4.50;95.00
43647;DHT22;56152;49.996;18.980;2023-02-14T14:55:43;4.50;95.10
43647;DHT22;56152;49.996;18.980;2023-02-14T15:00:53;4.40;95.10
43647;DHT22;56152;49.996;18.980;2023-02-14T15:06:12;4.40;95.10
43647;DHT22;56152;49.996;18.980;2023-02-14T15:11:19;4.30;95.10
43647;DHT22;56152;49.996;18.980;2023-02-14T15:16:41;4.30;95.10
43647;DHT22;56152;49.996;18.980;2023-02-14T15:21:46;4.20;95.10
43647;DHT22;56152;49.996;18.980;2023-02-14T15:26:48;4.20;95.10
43647;DHT22;56152;49.996;18.980;2023-02-14T15:31:56;4.20;95.10
43647;DHT22;56152;49.996;18.980;2023-02-14T15:37:03;4.10;95.10
43647;DHT22;56152;49.996;18.980;2023-02-14T15:48:31;4.10;95.10
43647;DHT22;56152;49.996;18.980;2023-02-14T15:53:38;4.00;95.10
43647;DHT22;56152;49.996;18.980;2023-02-14T15:58:43;4.00;95.10
43647;DHT22;56152;49.996;18.980;2023-02-14T16:03:51;4.00;95.10
43647;DHT22;56152;49.996;18.980;2023-02-14T16:08:56;3.90;95.20
43647;DHT22;56152;49.996;18.980;2023-02-14T16:14:19;3.90;95.20
43647;DHT22;56152;49.996;18.980;2023-02-14T16:19:33;3.90;95.30
43647;DHT22;56152;49.996;18.980;2023-02-14T16:24:36;3.80;95.30
43647;DHT22;56152;49.996;18.980;2023-02-14T16:29:38;3.80;95.30
43647;DHT22;56152;49.996;18.980;2023-02-14T16:34:47;3.80;95.40
43647;DHT22;56152;49.996;18.980;2023-02-14T16:39:52;3.70;95.40
43647;DHT22;56152;49.996;18.980;2023-02-14T16:44:57;3.70;95.40
43647;DHT22;56152;49.996;18.980;2023-02-14T16:50:03;3.70;95.40
43647;DHT22;56152;49.996;18.980;2023-02-14T16:55:14;3.70;95.40
43647;DHT22;56152;49.996;18.980;2023-02-14T17:00:17;3.60;95.40
43647;DHT22;56152;49.996;18.980;2023-02-14T17:05:22;3.60;95.50
43647;DHT22;56152;49.996;18.980;2023-02-14T17:10:28;3.60;95.50
43647;DHT22;56152;49.996;18.980;2023-02-14T17:15:31;3.60;95.50
43647;DHT22;56152;49.996;18.980;2023-02-14T17:20:39;3.50;95.50
43647;DHT22;56152;49.996;18.980;2023-02-14T17:25:42;3.50;95.50
43647;DHT22;56152;49.996;18.980;2023-02-14T17:30:45;3.50;95.50
43647;DHT22;56152;49.996;18.980;2023-02-14T17:35:49;3.50;95.60
43647;DHT22;56152;49.996;18.980;2023-02-14T17:40:55;3.50;95.60
43647;DHT22;56152;49.996;18.980;2023-02-14T17:45:57;3.40;95.60
43647;DHT22;56152;49.996;18.980;2023-02-14T17:51:06;3.40;95.60
43647;DHT22;56152;49.996;18.980;2023-02-14T17:56:11;3.40;95.60
43647;DHT22;56152;49.996;18.980;2023-02-14T18:01:15;3.40;95.60
43647;DHT22;56152;49.996;18.980;2023-02-14T18:06:22;3.40;95.60
43647;DHT22;56152;49.996;18.980;2023-02-14T18:11:27;3.40;95.60
43647;DHT22;56152;49.996;18.980;2023-02-14T18:16:31;3.40;95.60
43647;DHT22;56152;49.996;18.980;2023-02-14T18:21:37;3.30;95.60
43647;DHT22;56152;49.996;18.980;2023-02-14T18:26:40;3.30;95.60
43647;DHT22;56152;49.996;18.980;2023-02-14T18:31:43;3.30;95.60
43647;DHT22;56152;49.996;18.980;2023-02-14T18:36:48;3.30;95.60
43647;DHT22;56152;49.996;18.980;2023-02-14T18:41:50;3.30;95.60
43647;DHT22;56152;49.996;18.980;2023-02-14T18:46:52;3.30;95.60
43647;DHT22;56152;49.996;18.980;2023-02-14T18:51:59;3.30;95.60
43647;DHT22;56152;49.996;18.980;2023-02-14T18:57:04;3.20;95.50
43647;DHT22;56152;49.996;18.980;2023-02-14T19:02:09;3.20;95.60
43647;DHT22;56152;49.996;18.980;2023-02-14T19:07:18;3.20;95.60
43647;DHT22;56152;49.996;18.980;2023-02-14T19:12:22;3.20;95.60
43647;DHT22;56152;49.996;18.980;2023-02-14T19:17:27;3.20;95.60
43647;DHT22;56152;49.996;18.980;2023-02-14T19:22:37;3.20;95.60
43647;DHT22;56152;49.996;18.980;2023-02-14T19:27:41;3.10;95.60
43647;DHT22;56152;49.996;18.980;2023-02-14T19:32:45;3.10;95.60
43647;DHT22;56152;49.996;18.980;2023-02-14T19:37:51;3.20;95.60
43647;DHT22;56152;49.996;18.980;2023-02-14T19:42:58;3.10;95.60
43647;DHT22;56152;49.996;18.980;2023-02-14T19:48:04;3.10;95.60
43647;DHT22;56152;49.996;18.980;2023-02-14T19:53:08;3.10;95.60
43647;DHT22;56152;49.996;18.980;2023-02-14T19:58:10;3.10;95.70
43647;DHT22;56152;49.996;18.980;2023-02-14T20:03:13;3.00;95.70
43647;DHT22;56152;49.996;18.980;2023-02-14T20:08:17;3.00;95.70
43647;DHT22;56152;49.996;18.980;2023-02-14T20:13:20;3.00;95.70
43647;DHT22;56152;49.996;18.980;2023-02-14T20:18:24;3.00;95.70
43647;DHT22;56152;49.996;18.980;2023-02-14T20:23:28;3.00;95.70
43647;DHT22;56152;49.996;18.980;2023-02-14T20:28:32;3.00;95.70
43647;DHT22;56152;49.996;18.980;2023-02-14T20:33:36;2.90;95.70
43647;DHT22;56152;49.996;18.980;2023-02-14T20:38:40;2.90;95.80
43647;DHT22;56152;49.996;18.980;2023-02-14T20:43:42;2.90;95.80
43647;DHT22;56152;49.996;18.980;2023-02-14T20:48:44;2.80;95.90
43647;DHT22;56152;49.996;18.980;2023-02-14T20:53:48;2.80;95.90
43647;DHT22;56152;49.996;18.980;2023-02-14T20:58:51;2.80;96.00
43647;DHT22;56152;49.996;18.980;2023-02-14T21:03:57;2.70;96.00
43647;DHT22;56152;49.996;18.980;2023-02-14T21:09:01;2.70;96.10
43647;DHT22;56152;49.996;18.980;2023-02-14T21:14:04;2.70;96.10
43647;DHT22;56152;49.996;18.980;2023-02-14T21:19:08;2.70;96.10
43647;DHT22;56152;49.996;18.980;2023-02-14T21:24:14;2.70;96.10
43647;DHT22;56152;49.996;18.980;2023-02-14T21:29:18;2.70;96.10
43647;DHT22;56152;49.996;18.980;2023-02-14T21:34:21;2.70;96.00
43647;DHT22;56152;49.996;18.980;2023-02-14T21:39:26;2.70;96.00
43647;DHT22;56152;49.996;18.980;2023-02-14T21:44:30;2.70;96.00
43647;DHT22;56152;49.996;18.980;2023-02-14T21:49:50;2.70;96.00
43647;DHT22;56152;49.996;18.980;2023-02-14T21:55:11;2.60;96.10
43647;DHT22;56152;49.996;18.980;2023-02-14T22:00:14;2.60;96.10
43647;DHT22;56152;49.996;18.980;2023-02-14T22:05:18;2.60;96.20
43647;DHT22;56152;49.996;18.980;2023-02-14T22:10:22;2.50;96.20
43647;DHT22;56152;49.996;18.980;2023-02-14T22:15:25;2.50;96.20
43647;DHT22;56152;49.996;18.980;2023-02-14T22:20:28;2.40;96.20
43647;DHT22;56152;49.996;18.980;2023-02-14T22:25:33;2.40;96.30
43647;DHT22;56152;49.996;18.980;2023-02-14T22:30:35;2.40;96.30
43647;DHT22;56152;49.996;18.980;2023-02-14T22:35:38;2.40;96.40
43647;DHT22;56152;49.996;18.980;2023-02-14T22:40:44;2.40;96.40
43647;DHT22;56152;49.996;18.980;2023-02-14T22:45:47;2.40;96.40
43647;DHT22;56152;49.996;18.980;2023-02-14T22:50:50;2.40;96.40
43647;DHT22;56152;49.996;18.980;2023-02-14T22:55:55;2.40;96.40
43647;DHT22;56152;49.996;18.980;2023-02-14T23:00:57;2.40;96.30
43647;DHT22;56152;49.996;18.980;2023-02-14T23:06:00;2.40;96.30
43647;DHT22;56152;49.996;18.980;2023-02-14T23:11:10;2.40;96.30
43647;DHT22;56152;49.996;18.980;2023-02-14T23:16:15;2.30;96.30
43647;DHT22;56152;49.996;18.980;2023-02-14T23:21:37;2.30;96.40
43647;DHT22;56152;49.996;18.980;2023-02-14T23:27:00;2.30;96.40
43647;DHT22;56152;49.996;18.980;2023-02-14T23:32:02;2.20;96.40
43647;DHT22;56152;49.996;18.980;2023-02-14T23:37:05;2.20;96.40
43647;DHT22;56152;49.996;18.980;2023-02-14T23:42:10;2.30;96.40
43647;DHT22;56152;49.996;18.980;2023-02-14T23:47:13;2.30;96.40
43647;DHT22;56152;49.996;18.980;2023-02-14T23:52:16;2.20;96.40
43647;DHT22;56152;49.996;18.980;2023-02-14T23:57:23;2.20;96.40
